Time,TemperatureF,DewpointF,PressureIn,WindDirection,WindDirectionDegrees,WindSpeedMPH,WindSpeedGustMPH,Humidity,HourlyPrecipIn,Conditions,Clouds,dailyrainin,SoftwareType,DateUTC
2013-12-14 00:26:00,33.7,30.0,30.25,NW,320,0.0,0.0,86,0.00,,,0.00,weatherlink.com 1.10,2013-12-14 08:26:00,
2013-12-14 00:41:00,33.4,30.0,30.25,NW,320,0.0,1.0,86,0.00,,,0.00,weatherlink.com 1.10,2013-12-14 08:41:00,
2013-12-14 00:56:00,33.2,30.0,30.25,NW,320,0.0,1.0,87,0.00,,,0.00,weatherlink.com 1.10,2013-12-14 08:56:00,
2013-12-14 01:11:00,33.0,30.0,30.26,NW,320,0.0,1.0,87,0.00,,,0.00,weatherlink.com 1.10,2013-12-14 09:11:00,
2013-12-14 01:26:00,32.8,29.0,30.26,NW,320,0.0,1.0,87,0.00,,,0.00,weatherlink.com 1.10,2013-12-14 09:26:00,
2013-12-14 01:42:00,32.8,30.0,30.27,NW,326,0.0,1.0,88,0.00,,,0.00,weatherlink.com 1.10,2013-12-14 09:42:00,
2013-12-14 01:57:00,33.1,30.0,30.27,NNW,327,0.0,1.0,87,0.00,,,0.00,weatherlink.com 1.10,2013-12-14 09:57:00,
2013-12-14 02:12:00,32.6,30.0,30.28,NNW,327,0.0,0.0,88,0.00,,,0.00,weatherlink.com 1.10,2013-12-14 10:12:00,
2013-12-14 02:27:00,32.6,30.0,30.29,NNW,327,0.0,0.0,89,0.00,,,0.00,weatherlink.com 1.10,2013-12-14 10:27:00,
2013-12-14 02:42:00,34.2,32.0,30.29,WNW,287,0.0,1.0,90,0.00,,,0.00,weatherlink.com 1.10,2013-12-14 10:42:00,
2013-12-14 02:57:00,39.7,34.0,30.30,NW,325,3.0,4.0,81,0.00,,,0.00,weatherlink.com 1.10,2013-12-14 10:57:00,
2013-12-14 03:12:00,42.2,34.0,30.30,NE,49,2.0,4.0,73,0.00,,,0.00,weatherlink.com 1.10,2013-12-14 11:12:00,
2013-12-14 03:27:00,42.9,34.0,30.30,NE,44,0.0,4.0,70,0.00,,,0.00,weatherlink.com 1.10,2013-12-14 11:27:00,
2013-12-14 03:42:00,43.2,34.0,30.30,ENE,72,0.0,3.0,69,0.00,,,0.00,weatherlink.com 1.10,2013-12-14 11:42:00,
2013-12-14 03:57:00,43.2,33.0,30.30,ESE,105,0.0,2.0,68,0.00,,,0.00,weatherlink.com 1.10,2013-12-14 11:57:00,
2013-12-14 04:12:00,42.4,33.0,30.30,SE,146,0.0,1.0,69,0.00,,,0.00,weatherlink.com 1.10,2013-12-14 12:12:00,
2013-12-14 04:27:00,41.8,33.0,30.30,East,81,1.0,2.0,71,0.00,,,0.00,weatherlink.com 1.10,2013-12-14 12:27:00,
2013-12-14 04:42:00,40.8,32.0,30.31,East,81,0.0,0.0,72,0.00,,,0.00,weatherlink.com 1.10,2013-12-14 12:42:00,
2013-12-14 04:57:00,39.2,32.0,30.31,East,81,0.0,0.0,75,0.00,,,0.00,weatherlink.com 1.10,2013-12-14 12:57:00,
2013-12-14 05:12:00,37.8,31.0,30.31,East,81,0.0,2.0,77,0.00,,,0.00,weatherlink.com 1.10,2013-12-14 13:12:00,
2013-12-14 05:27:00,36.7,30.0,30.31,East,81,0.0,1.0,78,0.00,,,0.00,weatherlink.com 1.10,2013-12-14 13:27:00,
2013-12-14 05:42:00,35.6,30.0,30.32,East,80,0.0,1.0,81,0.00,,,0.00,weatherlink.com 1.10,2013-12-14 13:42:00,
2013-12-14 05:57:00,34.7,30.0,30.32,East,80,1.0,1.0,82,0.00,,,0.00,weatherlink.com 1.10,2013-12-14 13:57:00,
2013-12-14 06:12:00,33.7,29.0,30.33,East,80,0.0,1.0,83,0.00,,,0.00,weatherlink.com 1.10,2013-12-14 14:12:00,
2013-12-14 06:27:00,33.0,29.0,30.33,East,80,0.0,1.0,86,0.00,,,0.00,weatherlink.com 1.10,2013-12-14 14:27:00,
2013-12-14 06:42:00,32.6,29.0,30.33,East,80,0.0,0.0,87,0.00,,,0.00,weatherlink.com 1.10,2013-12-14 14:42:00,
2013-12-14 06:57:00,32.0,29.0,30.33,East,80,0.0,0.0,88,0.00,,,0.00,weatherlink.com 1.10,2013-12-14 14:57:00,
2013-12-14 07:12:00,31.8,29.0,30.33,East,80,0.0,0.0,89,0.00,,,0.00,weatherlink.com 1.10,2013-12-14 15:12:00,
2013-12-14 07:27:00,31.5,29.0,30.34,East,80,0.0,0.0,89,0.00,,,0.00,weatherlink.com 1.10,2013-12-14 15:27:00,
2013-12-14 07:42:00,31.5,29.0,30.34,East,80,0.0,0.0,90,0.00,,,0.00,weatherlink.com 1.10,2013-12-14 15:42:00,
2013-12-14 07:57:00,31.7,29.0,30.34,East,80,0.0,0.0,91,0.00,,,0.00,weatherlink.com 1.10,2013-12-14 15:57:00,
2013-12-14 08:12:00,31.9,29.0,30.36,East,80,0.0,0.0,90,0.00,,,0.00,weatherlink.com 1.10,2013-12-14 16:12:00,
2013-12-14 08:29:00,32.1,30.0,30.36,East,80,0.0,0.0,90,0.00,,,0.00,weatherlink.com 1.10,2013-12-14 16:29:00,
2013-12-14 08:43:00,32.5,30.0,30.36,East,94,0.0,1.0,89,0.00,,,0.00,weatherlink.com 1.10,2013-12-14 16:43:00,
2013-12-14 08:58:00,32.9,30.0,30.37,East,94,0.0,0.0,89,0.00,,,0.00,weatherlink.com 1.10,2013-12-14 16:58:00,
2013-12-14 09:13:00,33.9,31.0,30.37,East,94,0.0,0.0,89,0.00,,,0.00,weatherlink.com 1.10,2013-12-14 17:13:00,
2013-12-14 09:28:00,36.1,33.0,30.37,East,94,0.0,1.0,87,0.00,,,0.00,weatherlink.com 1.10,2013-12-14 17:28:00,
2013-12-14 09:43:00,38.9,34.0,30.37,East,94,0.0,0.0,82,0.00,,,0.00,weatherlink.com 1.10,2013-12-14 17:43:00,
2013-12-14 09:58:00,41.6,35.0,30.37,East,96,0.0,1.0,78,0.00,,,0.00,weatherlink.com 1.10,2013-12-14 17:58:00,
2013-12-14 10:13:00,44.9,37.0,30.37,WSW,252,1.0,2.0,73,0.00,,,0.00,weatherlink.com 1.10,2013-12-14 18:13:00,
2013-12-14 10:28:00,47.9,37.0,30.38,West,273,1.0,3.0,66,0.00,,,0.00,weatherlink.com 1.10,2013-12-14 18:28:00,
2013-12-14 10:43:00,50.3,37.0,30.37,SW,235,1.0,2.0,61,0.00,,,0.00,weatherlink.com 1.10,2013-12-14 18:43:00,
2013-12-14 10:58:00,51.1,37.0,30.37,West,261,2.0,3.0,58,0.00,,,0.00,weatherlink.com 1.10,2013-12-14 18:58:00,
2013-12-14 11:13:00,52.3,37.0,30.37,SSW,205,2.0,2.0,56,0.00,,,0.00,weatherlink.com 1.10,2013-12-14 19:13:00,
2013-12-14 11:28:00,54.2,37.0,30.36,WSW,250,1.0,3.0,52,0.00,,,0.00,weatherlink.com 1.10,2013-12-14 19:28:00,
2013-12-14 11:43:00,55.7,37.0,30.35,ESE,116,0.0,3.0,50,0.00,,,0.00,weatherlink.com 1.10,2013-12-14 19:43:00,
2013-12-14 11:58:00,56.5,36.0,30.34,NNW,336,0.0,2.0,47,0.00,,,0.00,weatherlink.com 1.10,2013-12-14 19:58:00,
2013-12-14 12:13:00,56.9,37.0,30.34,WNW,298,1.0,2.0,47,0.00,,,0.00,weatherlink.com 1.10,2013-12-14 20:13:00,
2013-12-14 12:28:00,57.8,37.0,30.33,SE,132,0.0,2.0,46,0.00,,,0.00,weatherlink.com 1.10,2013-12-14 20:28:00,
2013-12-14 12:43:00,57.9,37.0,30.32,East,95,1.0,2.0,46,0.00,,,0.00,weatherlink.com 1.10,2013-12-14 20:43:00,
2013-12-14 12:58:00,58.8,36.0,30.31,East,87,0.0,2.0,43,0.00,,,0.00,weatherlink.com 1.10,2013-12-14 20:58:00,
2013-12-14 13:13:00,59.1,36.0,30.30,NE,43,0.0,2.0,43,0.00,,,0.00,weatherlink.com 1.10,2013-12-14 21:13:00,
2013-12-14 13:28:00,59.0,37.0,30.29,NNW,333,0.0,3.0,44,0.00,,,0.00,weatherlink.com 1.10,2013-12-14 21:28:00,
2013-12-14 13:43:00,58.8,37.0,30.28,ENE,74,1.0,1.0,45,0.00,,,0.00,weatherlink.com 1.10,2013-12-14 21:43:00,
2013-12-14 13:58:00,58.3,37.0,30.28,West,272,0.0,2.0,46,0.00,,,0.00,weatherlink.com 1.10,2013-12-14 21:58:00,
2013-12-14 14:13:00,57.8,37.0,30.28,West,275,0.0,1.0,46,0.00,,,0.00,weatherlink.com 1.10,2013-12-14 22:13:00,
2013-12-14 14:28:00,58.3,36.0,30.28,SW,236,0.0,2.0,44,0.00,,,0.00,weatherlink.com 1.10,2013-12-14 22:28:00,
2013-12-14 14:43:00,58.7,37.0,30.28,WSW,249,0.0,4.0,44,0.00,,,0.00,weatherlink.com 1.10,2013-12-14 22:43:00,
2013-12-14 14:58:00,58.4,36.0,30.28,WSW,251,1.0,2.0,43,0.00,,,0.00,weatherlink.com 1.10,2013-12-14 22:58:00,
2013-12-14 15:13:00,58.0,37.0,30.28,WNW,294,0.0,1.0,45,0.00,,,0.00,weatherlink.com 1.10,2013-12-14 23:13:00,
2013-12-14 15:28:00,57.6,36.0,30.27,WNW,293,0.0,1.0,45,0.00,,,0.00,weatherlink.com 1.10,2013-12-14 23:28:00,
2013-12-14 15:43:00,57.2,35.0,30.27,WNW,293,0.0,1.0,44,0.00,,,0.00,weatherlink.com 1.10,2013-12-14 23:43:00,
2013-12-14 15:58:00,56.7,36.0,30.27,WNW,293,0.0,0.0,46,0.00,,,0.00,weatherlink.com 1.10,2013-12-14 23:58:00,
2013-12-14 16:13:00,55.5,36.0,30.28,WNW,293,0.0,0.0,48,0.00,,,0.00,weatherlink.com 1.10,2013-12-15 00:13:00,
2013-12-14 16:28:00,53.9,37.0,30.27,WNW,293,0.0,0.0,53,0.00,,,0.00,weatherlink.com 1.10,2013-12-15 00:28:00,
2013-12-14 16:43:00,52.1,36.0,30.28,WNW,293,0.0,0.0,55,0.00,,,0.00,weatherlink.com 1.10,2013-12-15 00:43:00,
2013-12-14 16:58:00,50.3,37.0,30.28,WNW,293,0.0,0.0,60,0.00,,,0.00,weatherlink.com 1.10,2013-12-15 00:58:00,
2013-12-14 17:13:00,48.6,36.0,30.27,WNW,293,0.0,0.0,61,0.00,,,0.00,weatherlink.com 1.10,2013-12-15 01:13:00,
2013-12-14 17:28:00,46.8,35.0,30.28,WNW,293,0.0,0.0,64,0.00,,,0.00,weatherlink.com 1.10,2013-12-15 01:28:00,
2013-12-14 17:43:00,45.3,36.0,30.28,WNW,293,0.0,0.0,69,0.00,,,0.00,weatherlink.com 1.10,2013-12-15 01:43:00,
2013-12-14 17:58:00,44.5,36.0,30.29,WNW,293,0.0,0.0,71,0.00,,,0.00,weatherlink.com 1.10,2013-12-15 01:58:00,
2013-12-14 18:14:00,43.5,35.0,30.29,WNW,293,0.0,0.0,73,0.00,,,0.00,weatherlink.com 1.10,2013-12-15 02:14:00,
2013-12-14 18:29:00,42.9,35.0,30.29,WNW,293,0.0,0.0,74,0.00,,,0.00,weatherlink.com 1.10,2013-12-15 02:29:00,
2013-12-14 18:44:00,42.5,35.0,30.30,WNW,293,0.0,0.0,75,0.00,,,0.00,weatherlink.com 1.10,2013-12-15 02:44:00,
2013-12-14 18:59:00,42.2,35.0,30.30,WNW,293,0.0,0.0,76,0.00,,,0.00,weatherlink.com 1.10,2013-12-15 02:59:00,
2013-12-14 19:14:00,41.3,35.0,30.30,WNW,293,0.0,0.0,78,0.00,,,0.00,weatherlink.com 1.10,2013-12-15 03:14:00,
2013-12-14 19:29:00,40.5,34.0,30.30,WNW,293,0.0,0.0,79,0.00,,,0.00,weatherlink.com 1.10,2013-12-15 03:29:00,
2013-12-14 19:44:00,39.7,34.0,30.30,WNW,293,0.0,0.0,80,0.00,,,0.00,weatherlink.com 1.10,2013-12-15 03:44:00,
2013-12-14 19:59:00,39.4,34.0,30.31,WNW,293,0.0,0.0,81,0.00,,,0.00,weatherlink.com 1.10,2013-12-15 03:59:00,
2013-12-14 20:14:00,38.7,34.0,30.31,WNW,293,0.0,0.0,82,0.00,,,0.00,weatherlink.com 1.10,2013-12-15 04:14:00,
2013-12-14 20:29:00,38.0,34.0,30.32,WNW,293,0.0,0.0,84,0.00,,,0.00,weatherlink.com 1.10,2013-12-15 04:29:00,
2013-12-14 20:44:00,37.4,33.0,30.32,WNW,293,0.0,0.0,85,0.00,,,0.00,weatherlink.com 1.10,2013-12-15 04:44:00,
2013-12-14 20:59:00,36.9,33.0,30.33,WNW,293,0.0,1.0,85,0.00,,,0.00,weatherlink.com 1.10,2013-12-15 04:59:00,
2013-12-14 21:14:00,36.1,32.0,30.34,WNW,293,0.0,1.0,85,0.00,,,0.00,weatherlink.com 1.10,2013-12-15 05:14:00,
2013-12-14 21:29:00,35.3,32.0,30.34,WNW,293,0.0,0.0,86,0.00,,,0.00,weatherlink.com 1.10,2013-12-15 05:29:00,
2013-12-14 21:44:00,34.6,31.0,30.34,WNW,293,0.0,0.0,88,0.00,,,0.00,weatherlink.com 1.10,2013-12-15 05:44:00,
2013-12-14 21:59:00,34.4,32.0,30.34,WNW,293,0.0,0.0,89,0.00,,,0.00,weatherlink.com 1.10,2013-12-15 05:59:00,
2013-12-14 22:14:00,34.3,31.0,30.34,WNW,293,0.0,0.0,89,0.00,,,0.00,weatherlink.com 1.10,2013-12-15 06:14:00,
2013-12-14 22:29:00,34.1,32.0,30.35,WNW,293,0.0,0.0,90,0.00,,,0.00,weatherlink.com 1.10,2013-12-15 06:29:00,
2013-12-14 22:44:00,33.7,31.0,30.35,WNW,293,0.0,0.0,90,0.00,,,0.00,weatherlink.com 1.10,2013-12-15 06:44:00,
2013-12-14 22:59:00,33.2,31.0,30.35,WNW,293,0.0,0.0,90,0.00,,,0.00,weatherlink.com 1.10,2013-12-15 06:59:00,
2013-12-14 23:14:00,33.0,31.0,30.36,WNW,293,0.0,0.0,91,0.00,,,0.00,weatherlink.com 1.10,2013-12-15 07:14:00,
2013-12-14 23:29:00,32.6,30.0,30.36,WNW,293,0.0,0.0,90,0.00,,,0.00,weatherlink.com 1.10,2013-12-15 07:29:00,
2013-12-14 23:44:00,32.2,30.0,30.36,WNW,293,0.0,0.0,91,0.00,,,0.00,weatherlink.com 1.10,2013-12-15 07:44:00,
2013-12-14 23:59:00,31.9,30.0,30.36,WNW,293,0.0,0.0,91,0.00,,,0.00,weatherlink.com 1.10,2013-12-15 07:59:00,